Time;durP1;ratioP1;P1;durP2;ratioP2;P2;SDS_P1;SDS_P2;PMS_P1;PMS_P2;Temp;Humidity;BMP_temperature;BMP_pressure;BME280_temperature;BME280_humidity;BME280_pressure;Samples;Min_cycle;Max_cycle;Signal;HPM_P1;HPM_P2
2020/12/26 00:00:37;;;;;;;45.63;18.97;;;;;;;;;;5022923;28;20268;-79
2020/12/26 00:03:03;;;;;;;38.70;16.97;;;;;;;;;;5008772;28;20261;-78
2020/12/26 00:05:29;;;;;;;34.70;17.00;;;;;;;;;;5007439;28;20290;-78
2020/12/26 00:07:55;;;;;;;34.00;15.73;;;;;;;;;;5005999;28;20279;-79
2020/12/26 00:10:23;;;;;;;35.13;16.30;;;;;;;;;;5005676;28;20379;-78
2020/12/26 00:12:49;;;;;;;62.17;23.90;;;;;;;;;;5006398;28;20895;-79
2020/12/26 00:15:15;;;;;;;69.97;26.47;;;;;;;;;;5006531;28;20783;-78
2020/12/26 00:17:42;;;;;;;76.97;29.50;;;;;;;;;;5007460;28;20257;-79
2020/12/26 00:20:08;;;;;;;77.00;28.53;;;;;;;;;;5005467;28;20287;-78
2020/12/26 00:22:35;;;;;;;50.90;22.20;;;;;;;;;;5007238;28;20269;-79
2020/12/26 00:25:01;;;;;;;48.83;20.63;;;;;;;;;;5007109;28;20299;-79
2020/12/26 00:27:28;;;;;;;37.77;17.13;;;;;;;;;;5008058;28;20279;-80
2020/12/26 00:29:54;;;;;;;36.43;17.03;;;;;;;;;;5009777;28;20794;-79
2020/12/26 00:32:23;;;;;;;36.13;17.30;;;;;;;;;;5007258;28;20780;-80
2020/12/26 00:34:49;;;;;;;42.80;19.00;;;;;;;;;;5009525;28;20331;-77
2020/12/26 00:37:19;;;;;;;47.10;19.20;;;;;;;;;;5008015;28;20273;-79
2020/12/26 00:39:45;;;;;;;40.90;18.30;;;;;;;;;;4991602;28;20269;-79
2020/12/26 00:42:13;;;;;;;35.53;16.95;;;;;;;;;;4999407;28;20309;-79
2020/12/26 00:44:39;;;;;;;33.83;16.07;;;;;;;;;;4994321;28;20018;-78
2020/12/26 00:47:05;;;;;;;36.90;16.07;;;;;;;;;;5005443;28;20273;-79
2020/12/26 00:49:31;;;;;;;34.77;16.27;;;;;;;;;;4989379;28;20266;-78
2020/12/26 00:51:57;;;;;;;35.23;14.43;;;;;;;;;;5008733;28;20292;-79
2020/12/26 00:54:24;;;;;;;29.87;14.73;;;;;;;;;;5007432;28;20334;-78
2020/12/26 00:56:50;;;;;;;30.13;14.20;;;;;;;;;;5008760;28;20284;-78
2020/12/26 00:59:16;;;;;;;31.33;13.40;;;;;;;;;;5008713;28;20903;-79
2020/12/26 01:01:42;;;;;;;30.77;14.27;;;;;;;;;;5007197;28;20065;-80
2020/12/26 01:04:09;;;;;;;32.45;14.13;;;;;;;;;;5009318;28;20018;-78
2020/12/26 01:06:35;;;;;;;33.75;15.48;;;;;;;;;;5008216;28;20034;-79
2020/12/26 01:09:01;;;;;;;33.15;14.93;;;;;;;;;;5007567;28;20053;-79
2020/12/26 01:11:27;;;;;;;40.83;16.70;;;;;;;;;;4989569;28;20043;-79
2020/12/26 01:13:53;;;;;;;46.78;19.38;;;;;;;;;;4992538;28;20025;-79
2020/12/26 01:16:19;;;;;;;53.95;22.80;;;;;;;;;;5009691;28;20061;-78
2020/12/26 01:18:45;;;;;;;49.95;22.33;;;;;;;;;;5005978;28;20023;-79
2020/12/26 01:21:14;;;;;;;49.10;20.90;;;;;;;;;;5008226;28;20031;-79
2020/12/26 01:23:42;;;;;;;55.78;23.75;;;;;;;;;;4999424;28;20787;-78
2020/12/26 01:26:08;;;;;;;63.55;25.65;;;;;;;;;;5029352;28;20030;-79
2020/12/26 01:28:34;;;;;;;50.97;23.35;;;;;;;;;;5017614;28;20036;-78
2020/12/26 01:31:00;;;;;;;50.35;21.73;;;;;;;;;;5009270;28;20030;-80
2020/12/26 01:33:26;;;;;;;68.35;24.20;;;;;;;;;;5008330;28;20385;-79
2020/12/26 01:35:52;;;;;;;50.37;20.60;;;;;;;;;;5007792;28;20025;-78
2020/12/26 01:38:28;;;;;;;55.80;22.23;;;;;;;;;;5005617;28;20788;-79
2020/12/26 01:40:54;;;;;;;45.88;20.45;;;;;;;;;;5009339;28;20268;-79
2020/12/26 01:43:20;;;;;;;44.95;20.25;;;;;;;;;;5009219;28;20033;-79
2020/12/26 01:45:46;;;;;;;48.53;20.83;;;;;;;;;;4995749;28;20027;-79
2020/12/26 01:48:13;;;;;;;59.50;24.65;;;;;;;;;;5004926;28;20026;-78
2020/12/26 01:50:40;;;;;;;64.55;25.80;;;;;;;;;;5011115;28;20843;-81
2020/12/26 01:53:06;;;;;;;53.03;25.67;;;;;;;;;;5009174;28;20033;-80
2020/12/26 01:55:32;;;;;;;55.47;24.77;;;;;;;;;;5009114;28;20041;-79
2020/12/26 01:57:59;;;;;;;57.22;26.50;;;;;;;;;;5008043;28;20613;-79
2020/12/26 02:00:25;;;;;;;70.93;33.20;;;;;;;;;;5007708;28;20108;-78
2020/12/26 02:02:51;;;;;;;65.00;27.67;;;;;;;;;;4994388;28;20034;-78
2020/12/26 02:05:17;;;;;;;50.25;22.88;;;;;;;;;;5010890;28;20030;-79
2020/12/26 02:07:44;;;;;;;44.30;20.42;;;;;;;;;;5008961;28;20044;-79
2020/12/26 02:10:11;;;;;;;32.13;16.20;;;;;;;;;;5009055;28;20041;-78
2020/12/26 02:12:37;;;;;;;30.27;13.52;;;;;;;;;;5008631;28;20300;-79
2020/12/26 02:15:03;;;;;;;41.70;18.53;;;;;;;;;;5008230;28;20022;-78
2020/12/26 02:17:29;;;;;;;58.65;22.02;;;;;;;;;;5008059;28;20280;-79
2020/12/26 02:19:55;;;;;;;74.93;27.55;;;;;;;;;;5009293;28;20025;-79
2020/12/26 02:22:21;;;;;;;69.95;26.92;;;;;;;;;;5008202;28;20018;-80
2020/12/26 02:24:47;;;;;;;72.90;27.73;;;;;;;;;;5008655;28;20037;-79
2020/12/26 02:27:13;;;;;;;64.10;26.55;;;;;;;;;;5007014;28;20038;-78
2020/12/26 02:29:39;;;;;;;135.87;30.47;;;;;;;;;;5004468;28;20474;-80
2020/12/26 02:32:06;;;;;;;118.37;28.73;;;;;;;;;;5008276;28;20257;-79
2020/12/26 02:34:33;;;;;;;73.60;25.50;;;;;;;;;;5009779;28;20253;-79
2020/12/26 02:36:59;;;;;;;196.60;33.37;;;;;;;;;;5004643;28;20772;-79
2020/12/26 02:39:32;;;;;;;156.57;31.47;;;;;;;;;;5004563;28;20284;-79
2020/12/26 02:41:58;;;;;;;57.05;18.10;;;;;;;;;;5003343;28;20272;-78
2020/12/26 02:44:24;;;;;;;100.50;27.20;;;;;;;;;;5007716;28;20121;-79
2020/12/26 02:46:51;;;;;;;76.73;27.30;;;;;;;;;;5007934;28;20327;-79
2020/12/26 02:49:17;;;;;;;59.77;24.00;;;;;;;;;;5007833;28;20407;-79
2020/12/26 02:51:44;;;;;;;54.30;25.10;;;;;;;;;;5008874;28;20755;-79
2020/12/26 02:54:11;;;;;;;45.30;21.23;;;;;;;;;;5021352;28;20272;-79
2020/12/26 02:56:40;;;;;;;40.20;20.67;;;;;;;;;;5007448;28;20299;-78
2020/12/26 02:59:10;;;;;;;39.53;20.87;;;;;;;;;;5008606;28;20257;-77
2020/12/26 03:01:40;;;;;;;41.80;19.27;;;;;;;;;;5009892;28;20656;-79
2020/12/26 03:04:06;;;;;;;37.53;18.33;;;;;;;;;;5010176;28;20288;-78
2020/12/26 03:06:32;;;;;;;35.00;16.93;;;;;;;;;;5005848;28;20269;-79
2020/12/26 03:08:58;;;;;;;35.23;17.20;;;;;;;;;;5009815;28;20269;-78
2020/12/26 03:11:24;;;;;;;32.47;17.10;;;;;;;;;;5010663;28;20285;-79
2020/12/26 03:13:50;;;;;;;30.37;16.33;;;;;;;;;;5011921;28;20284;-79
2020/12/26 03:16:23;;;;;;;29.80;15.57;;;;;;;;;;5011364;28;20346;-78
2020/12/26 03:18:50;;;;;;;29.85;15.20;;;;;;;;;;5010280;28;20267;-78
2020/12/26 03:21:16;;;;;;;27.93;15.13;;;;;;;;;;5010202;28;20106;-79
2020/12/26 03:23:42;;;;;;;28.50;14.13;;;;;;;;;;5009314;28;20265;-78
2020/12/26 03:26:08;;;;;;;23.30;11.53;;;;;;;;;;5022468;28;20327;-79
2020/12/26 03:28:35;;;;;;;18.40;10.73;;;;;;;;;;5028861;28;20355;-79
2020/12/26 03:31:01;;;;;;;14.43;9.17;;;;;;;;;;5022261;28;20315;-79
2020/12/26 03:33:27;;;;;;;17.57;10.70;;;;;;;;;;5010347;28;20265;-79
2020/12/26 03:35:53;;;;;;;17.83;10.53;;;;;;;;;;5009758;28;20272;-79
2020/12/26 03:38:19;;;;;;;20.03;10.40;;;;;;;;;;5011827;28;20257;-78
2020/12/26 03:40:45;;;;;;;16.87;9.80;;;;;;;;;;4991474;28;20799;-78
2020/12/26 03:43:11;;;;;;;18.90;9.43;;;;;;;;;;4990759;28;20336;-78
2020/12/26 03:45:37;;;;;;;19.23;11.07;;;;;;;;;;4990448;28;20277;-79
2020/12/26 03:48:03;;;;;;;26.20;12.70;;;;;;;;;;5005125;28;20305;-79
2020/12/26 03:50:29;;;;;;;22.17;11.63;;;;;;;;;;5009995;28;20265;-78
2020/12/26 03:52:55;;;;;;;19.93;11.37;;;;;;;;;;5014976;28;20360;-79
2020/12/26 03:55:21;;;;;;;22.67;12.10;;;;;;;;;;5018102;28;20273;-78
2020/12/26 03:57:48;;;;;;;22.10;11.73;;;;;;;;;;4990245;28;20337;-78
2020/12/26 04:00:14;;;;;;;25.77;13.87;;;;;;;;;;5009285;28;20276;-80
2020/12/26 04:02:40;;;;;;;24.53;13.40;;;;;;;;;;5000632;28;20272;-79
2020/12/26 04:05:06;;;;;;;27.70;13.23;;;;;;;;;;5021951;28;20403;-79
2020/12/26 04:07:32;;;;;;;25.93;13.13;;;;;;;;;;5010770;28;20280;-77
2020/12/26 04:09:58;;;;;;;23.10;12.30;;;;;;;;;;5007369;28;20290;-79
2020/12/26 04:12:24;;;;;;;23.23;12.70;;;;;;;;;;4996569;28;20958;-78
2020/12/26 04:14:50;;;;;;;25.53;14.03;;;;;;;;;;5010833;28;20347;-79
2020/12/26 04:17:16;;;;;;;26.93;13.77;;;;;;;;;;5011490;28;20356;-79
2020/12/26 04:19:42;;;;;;;28.97;14.97;;;;;;;;;;5007234;28;20276;-79
2020/12/26 04:22:08;;;;;;;32.40;14.97;;;;;;;;;;5011271;28;20340;-79
2020/12/26 04:24:35;;;;;;;31.40;16.00;;;;;;;;;;5009535;28;20354;-79
2020/12/26 04:27:01;;;;;;;28.63;15.13;;;;;;;;;;5011312;28;20277;-79
2020/12/26 04:29:27;;;;;;;32.27;16.67;;;;;;;;;;5010714;28;20598;-80
2020/12/26 04:31:53;;;;;;;32.13;15.57;;;;;;;;;;5011974;28;20257;-78
2020/12/26 04:34:20;;;;;;;39.63;17.33;;;;;;;;;;5007521;28;20262;-79
2020/12/26 04:36:46;;;;;;;33.00;16.93;;;;;;;;;;5005269;28;20285;-80
2020/12/26 04:39:12;;;;;;;29.67;15.67;;;;;;;;;;5009775;28;20269;-78
2020/12/26 04:41:38;;;;;;;40.67;18.17;;;;;;;;;;5011362;28;20265;-79
2020/12/26 04:44:06;;;;;;;41.47;20.87;;;;;;;;;;5010215;28;20273;-79
2020/12/26 04:46:36;;;;;;;38.00;19.70;;;;;;;;;;5009914;28;20269;-79
2020/12/26 04:49:09;;;;;;;41.57;19.33;;;;;;;;;;5010229;28;20269;-79
2020/12/26 04:51:39;;;;;;;41.22;20.77;;;;;;;;;;4994676;28;20756;-79
2020/12/26 04:54:10;;;;;;;35.57;18.93;;;;;;;;;;4998984;28;20026;-78
2020/12/26 04:56:41;;;;;;;35.70;18.27;;;;;;;;;;5009888;28;20415;-78
2020/12/26 04:59:08;;;;;;;34.90;18.80;;;;;;;;;;5010772;28;20269;-79
2020/12/26 05:01:36;;;;;;;32.73;17.40;;;;;;;;;;4999593;28;20303;-78
2020/12/26 05:04:02;;;;;;;36.20;18.90;;;;;;;;;;5009949;28;20261;-79
2020/12/26 05:06:30;;;;;;;35.10;19.17;;;;;;;;;;5005807;28;20617;-78
2020/12/26 05:08:56;;;;;;;35.10;18.30;;;;;;;;;;4998586;28;20276;-78
2020/12/26 05:11:23;;;;;;;35.63;19.13;;;;;;;;;;5009713;28;20275;-79
2020/12/26 05:13:49;;;;;;;35.30;19.17;;;;;;;;;;5009821;28;20356;-78
2020/12/26 05:16:15;;;;;;;35.37;18.53;;;;;;;;;;4993607;28;20878;-79
2020/12/26 05:18:41;;;;;;;43.10;22.37;;;;;;;;;;4990504;28;20278;-79
2020/12/26 05:21:07;;;;;;;43.83;20.47;;;;;;;;;;4990033;28;20357;-78
2020/12/26 05:23:35;;;;;;;45.07;23.00;;;;;;;;;;4998660;28;20279;-79
2020/12/26 05:26:02;;;;;;;43.87;21.80;;;;;;;;;;5010498;28;20312;-79
2020/12/26 05:28:33;;;;;;;47.13;23.23;;;;;;;;;;5010934;28;20277;-79
2020/12/26 05:30:59;;;;;;;48.33;22.90;;;;;;;;;;5009974;28;20276;-79
2020/12/26 05:33:30;;;;;;;45.60;21.03;;;;;;;;;;5006260;28;20282;-78
2020/12/26 05:36:02;;;;;;;48.13;23.00;;;;;;;;;;4998098;28;20396;-80
2020/12/26 05:38:28;;;;;;;44.57;20.17;;;;;;;;;;5008423;28;20375;-78
2020/12/26 05:40:54;;;;;;;48.63;22.70;;;;;;;;;;5009515;28;20257;-78
2020/12/26 05:43:30;;;;;;;45.63;19.93;;;;;;;;;;5009327;28;20636;-80
2020/12/26 05:45:57;;;;;;;43.13;19.67;;;;;;;;;;5009177;28;20363;-79
2020/12/26 05:48:24;;;;;;;46.20;21.13;;;;;;;;;;5010123;28;20275;-79
2020/12/26 05:50:54;;;;;;;48.70;22.43;;;;;;;;;;5008762;28;20288;-79
2020/12/26 05:53:24;;;;;;;44.60;20.83;;;;;;;;;;5005438;28;20286;-79
2020/12/26 05:55:50;;;;;;;44.47;20.57;;;;;;;;;;5007185;28;20293;-79
2020/12/26 05:58:20;;;;;;;49.60;21.77;;;;;;;;;;5009728;28;20265;-81
2020/12/26 06:00:46;;;;;;;46.67;20.60;;;;;;;;;;4997102;28;21226;-79
2020/12/26 06:03:24;;;;;;;48.30;20.90;;;;;;;;;;4990355;28;20341;-78
2020/12/26 06:05:52;;;;;;;45.70;20.50;;;;;;;;;;5005188;28;20296;-80
2020/12/26 06:08:18;;;;;;;44.03;20.73;;;;;;;;;;4989864;28;20262;-79
2020/12/26 06:10:58;;;;;;;46.57;20.70;;;;;;;;;;5004241;28;20297;-78
2020/12/26 06:13:25;;;;;;;43.40;20.90;;;;;;;;;;5004993;28;20509;-78
2020/12/26 06:15:53;;;;;;;48.37;20.40;;;;;;;;;;5004545;28;20343;-80
2020/12/26 06:18:19;;;;;;;43.73;20.73;;;;;;;;;;5013074;28;20288;-79
2020/12/26 06:20:46;;;;;;;44.00;19.83;;;;;;;;;;5007895;28;20302;-79
2020/12/26 06:23:16;;;;;;;45.23;19.50;;;;;;;;;;5008932;28;20387;-78
2020/12/26 06:25:44;;;;;;;39.93;19.33;;;;;;;;;;5006622;28;20288;-78
2020/12/26 06:28:20;;;;;;;43.43;19.00;;;;;;;;;;5007766;28;20272;-79
2020/12/26 06:30:46;;;;;;;40.47;19.73;;;;;;;;;;5007902;28;20437;-79
2020/12/26 06:33:12;;;;;;;39.00;18.57;;;;;;;;;;5007916;28;20273;-79
2020/12/26 06:35:42;;;;;;;34.10;15.93;;;;;;;;;;5006756;28;20287;-79
2020/12/26 06:38:11;;;;;;;33.90;16.10;;;;;;;;;;5007123;28;20285;-79
2020/12/26 06:40:37;;;;;;;34.83;16.97;;;;;;;;;;5017659;28;20263;-79
2020/12/26 06:43:03;;;;;;;37.87;17.33;;;;;;;;;;5008123;28;20340;-79
2020/12/26 06:45:33;;;;;;;34.80;15.67;;;;;;;;;;5004587;28;20266;-79
2020/12/26 06:48:00;;;;;;;34.40;16.23;;;;;;;;;;4987663;28;20797;-79
2020/12/26 06:50:27;;;;;;;39.97;17.23;;;;;;;;;;4989415;28;20945;-79
2020/12/26 06:52:53;;;;;;;32.23;16.07;;;;;;;;;;4988275;28;20284;-79
2020/12/26 06:55:41;;;;;;;33.83;18.10;;;;;;;;;;5007986;28;20284;-78
2020/12/26 06:58:08;;;;;;;44.00;19.73;;;;;;;;;;5006908;28;20269;-79
2020/12/26 07:00:34;;;;;;;39.77;18.33;;;;;;;;;;5004083;28;20273;-79
2020/12/26 07:03:19;;;;;;;38.13;17.60;;;;;;;;;;5007015;28;20804;-80
2020/12/26 07:05:45;;;;;;;38.10;18.20;;;;;;;;;;5009219;28;20265;-79
2020/12/26 07:08:22;;;;;;;41.87;18.07;;;;;;;;;;5008156;28;20323;-78
2020/12/26 07:10:48;;;;;;;44.20;21.13;;;;;;;;;;4989712;28;20324;-80
2020/12/26 07:13:33;;;;;;;44.83;18.93;;;;;;;;;;4987899;28;20265;-79
2020/12/26 07:15:59;;;;;;;48.40;18.90;;;;;;;;;;4987682;28;20368;-80
2020/12/26 07:18:25;;;;;;;38.30;17.30;;;;;;;;;;4995958;28;20335;-79
2020/12/26 07:20:51;;;;;;;43.93;19.80;;;;;;;;;;5007980;28;20873;-80
2020/12/26 07:23:17;;;;;;;39.07;17.40;;;;;;;;;;5007156;28;20276;-79
2020/12/26 07:25:43;;;;;;;41.00;16.90;;;;;;;;;;5008830;28;20272;-78
2020/12/26 07:28:13;;;;;;;33.87;15.27;;;;;;;;;;4998952;28;20656;-79
2020/12/26 07:30:39;;;;;;;41.13;17.50;;;;;;;;;;5007927;28;20695;-80
2020/12/26 07:33:05;;;;;;;34.37;17.03;;;;;;;;;;5005853;28;20287;-79
2020/12/26 07:35:35;;;;;;;33.17;15.70;;;;;;;;;;5005489;28;20279;-80
2020/12/26 07:38:09;;;;;;;41.33;20.33;;;;;;;;;;4991804;28;20277;-79
2020/12/26 07:40:39;;;;;;;46.80;21.80;;;;;;;;;;5011125;28;20297;-80
2020/12/26 07:43:08;;;;;;;37.30;20.33;;;;;;;;;;5006662;28;20045;-80
2020/12/26 07:45:35;;;;;;;36.47;20.07;;;;;;;;;;5008182;28;20842;-79
2020/12/26 07:48:02;;;;;;;33.53;17.63;;;;;;;;;;5007205;28;20340;-80
2020/12/26 07:50:32;;;;;;;35.60;17.70;;;;;;;;;;5007975;28;20272;-79
2020/12/26 07:52:59;;;;;;;33.80;17.47;;;;;;;;;;4991304;28;20460;-80
2020/12/26 07:55:29;;;;;;;36.80;18.67;;;;;;;;;;5011168;28;20285;-80
2020/12/26 07:58:00;;;;;;;35.10;18.23;;;;;;;;;;5010056;28;20269;-80
2020/12/26 08:00:26;;;;;;;33.87;17.13;;;;;;;;;;5010175;28;20787;-78
2020/12/26 08:02:57;;;;;;;37.07;20.23;;;;;;;;;;5009879;28;20384;-80
2020/12/26 08:05:27;;;;;;;41.77;20.10;;;;;;;;;;5010978;28;20273;-78
2020/12/26 08:07:54;;;;;;;35.03;18.03;;;;;;;;;;5010858;28;20770;-78
2020/12/26 08:10:20;;;;;;;28.80;18.30;;;;;;;;;;5011072;28;20280;-79
2020/12/26 08:12:47;;;;;;;35.07;20.50;;;;;;;;;;5005037;28;20365;-79
2020/12/26 08:15:13;;;;;;;34.50;19.17;;;;;;;;;;4994144;28;20289;-79
2020/12/26 08:17:39;;;;;;;26.90;16.10;;;;;;;;;;4993857;28;20278;-79
2020/12/26 08:20:05;;;;;;;29.67;16.03;;;;;;;;;;5017607;28;20269;-79
2020/12/26 08:22:31;;;;;;;26.83;15.50;;;;;;;;;;5012526;28;20292;-79
2020/12/26 08:25:07;;;;;;;26.63;14.77;;;;;;;;;;4997935;28;20284;-80
2020/12/26 08:27:36;;;;;;;28.83;15.33;;;;;;;;;;5011164;28;20348;-80
2020/12/26 08:30:22;;;;;;;22.80;13.43;;;;;;;;;;5010684;28;20323;-80
2020/12/26 08:32:55;;;;;;;22.63;13.70;;;;;;;;;;5001865;28;20405;-80
2020/12/26 08:35:25;;;;;;;20.00;11.80;;;;;;;;;;4999489;28;20308;-81
2020/12/26 08:37:56;;;;;;;27.67;14.63;;;;;;;;;;5025735;28;20029;-80
2020/12/26 08:40:22;;;;;;;26.53;14.83;;;;;;;;;;5007461;28;20282;-80
2020/12/26 08:42:52;;;;;;;24.23;12.97;;;;;;;;;;5005472;28;20356;-80
2020/12/26 08:45:32;;;;;;;19.17;11.17;;;;;;;;;;5002268;28;20289;-81
2020/12/26 08:48:01;;;;;;;17.93;9.30;;;;;;;;;;4998012;28;20728;-80
2020/12/26 08:50:28;;;;;;;21.23;10.20;;;;;;;;;;5011969;28;20273;-81
2020/12/26 08:53:02;;;;;;;17.33;10.93;;;;;;;;;;5009538;28;20120;-81
2020/12/26 08:55:28;;;;;;;16.60;9.97;;;;;;;;;;5012354;28;20345;-80
2020/12/26 08:57:58;;;;;;;15.03;9.10;;;;;;;;;;5011197;28;20504;-80
2020/12/26 09:00:26;;;;;;;13.43;9.10;;;;;;;;;;5007816;28;20038;-80
2020/12/26 09:02:53;;;;;;;15.10;8.23;;;;;;;;;;5006083;28;20031;-80
2020/12/26 09:05:21;;;;;;;12.83;7.17;;;;;;;;;;5010348;28;20182;-79
2020/12/26 09:07:47;;;;;;;11.80;7.43;;;;;;;;;;5010237;28;20034;-80
2020/12/26 09:10:13;;;;;;;13.07;8.63;;;;;;;;;;5010547;28;20104;-79
2020/12/26 09:12:42;;;;;;;12.33;8.50;;;;;;;;;;5006397;28;20038;-80
2020/12/26 09:15:12;;;;;;;12.83;8.07;;;;;;;;;;5011745;28;20018;-79
2020/12/26 09:17:38;;;;;;;16.13;8.40;;;;;;;;;;5010297;28;20401;-79
2020/12/26 09:20:05;;;;;;;17.17;10.97;;;;;;;;;;5006056;28;20109;-80
2020/12/26 09:22:31;;;;;;;23.07;13.40;;;;;;;;;;4991916;28;20023;-79
2020/12/26 09:24:58;;;;;;;18.77;11.37;;;;;;;;;;5009071;28;20892;-80
2020/12/26 09:27:24;;;;;;;19.73;12.23;;;;;;;;;;5009292;28;20026;-79
2020/12/26 09:30:02;;;;;;;20.27;12.40;;;;;;;;;;5010065;28;20034;-79
2020/12/26 09:32:28;;;;;;;24.80;12.27;;;;;;;;;;5010296;28;20030;-80
2020/12/26 09:34:54;;;;;;;19.73;11.77;;;;;;;;;;5010430;28;20609;-80
2020/12/26 09:37:20;;;;;;;21.53;13.00;;;;;;;;;;5008744;28;20034;-79
2020/12/26 09:39:46;;;;;;;22.83;12.53;;;;;;;;;;5010525;28;20030;-79
2020/12/26 09:42:13;;;;;;;23.43;13.17;;;;;;;;;;5011959;28;20371;-80
2020/12/26 09:44:41;;;;;;;21.00;10.73;;;;;;;;;;5010859;28;20333;-81
2020/12/26 09:47:07;;;;;;;18.17;10.67;;;;;;;;;;5008554;28;20299;-80
2020/12/26 09:49:33;;;;;;;18.20;9.77;;;;;;;;;;5005478;28;20277;-81
2020/12/26 09:51:59;;;;;;;17.10;10.27;;;;;;;;;;5010652;28;20038;-81
2020/12/26 09:54:25;;;;;;;19.53;11.60;;;;;;;;;;5020983;28;20548;-82
2020/12/26 09:56:54;;;;;;;14.93;9.83;;;;;;;;;;5014726;28;20030;-81
2020/12/26 09:59:21;;;;;;;17.03;10.03;;;;;;;;;;5009690;28;20053;-81
2020/12/26 10:01:47;;;;;;;21.67;9.93;;;;;;;;;;5009775;28;20030;-81
2020/12/26 10:04:13;;;;;;;17.43;11.60;;;;;;;;;;5008230;28;20045;-81
2020/12/26 10:06:39;;;;;;;19.23;8.83;;;;;;;;;;5010634;28;20057;-80
2020/12/26 10:09:05;;;;;;;21.67;11.20;;;;;;;;;;5010343;28;20100;-81
2020/12/26 10:11:32;;;;;;;20.43;10.80;;;;;;;;;;5011148;28;20041;-81
2020/12/26 10:13:59;;;;;;;17.93;9.27;;;;;;;;;;5011008;28;20059;-81
2020/12/26 10:16:25;;;;;;;18.13;11.00;;;;;;;;;;5009471;28;20041;-81
2020/12/26 10:18:51;;;;;;;15.37;8.97;;;;;;;;;;5010151;28;20034;-80
2020/12/26 10:21:17;;;;;;;18.40;10.60;;;;;;;;;;5008907;28;20119;-80
2020/12/26 10:23:43;;;;;;;20.17;10.20;;;;;;;;;;5008948;28;20057;-80
2020/12/26 10:26:10;;;;;;;17.93;10.17;;;;;;;;;;5008790;28;20069;-80
2020/12/26 10:28:36;;;;;;;20.87;11.27;;;;;;;;;;5009415;28;20045;-81
2020/12/26 10:31:02;;;;;;;18.23;11.47;;;;;;;;;;5009197;28;20033;-81
2020/12/26 10:33:29;;;;;;;22.03;12.17;;;;;;;;;;5009222;28;20405;-81
2020/12/26 10:35:55;;;;;;;19.80;11.40;;;;;;;;;;5008708;28;20276;-81
2020/12/26 10:38:21;;;;;;;25.63;12.77;;;;;;;;;;5002747;28;20034;-79
2020/12/26 10:40:47;;;;;;;23.47;13.53;;;;;;;;;;5012378;28;20033;-81
2020/12/26 10:43:14;;;;;;;18.17;11.13;;;;;;;;;;5015025;28;20033;-82
2020/12/26 10:45:40;;;;;;;20.17;9.07;;;;;;;;;;5013182;28;20025;-81
2020/12/26 10:48:06;;;;;;;25.93;14.83;;;;;;;;;;5012554;28;20030;-82
2020/12/26 10:50:32;;;;;;;25.73;14.57;;;;;;;;;;5017190;28;20586;-82
2020/12/26 10:52:58;;;;;;;22.67;13.87;;;;;;;;;;5021858;28;20058;-82
2020/12/26 10:55:25;;;;;;;20.60;13.47;;;;;;;;;;5010936;28;20035;-80
2020/12/26 10:57:52;;;;;;;17.57;10.37;;;;;;;;;;5021322;28;20115;-80
2020/12/26 11:00:19;;;;;;;19.40;11.67;;;;;;;;;;5023294;28;20025;-81
2020/12/26 11:02:45;;;;;;;23.17;13.30;;;;;;;;;;5022203;28;20022;-81
2020/12/26 11:05:11;;;;;;;27.17;14.00;;;;;;;;;;5026725;28;20026;-79
2020/12/26 11:07:37;;;;;;;20.97;11.70;;;;;;;;;;5022370;28;20488;-81
2020/12/26 11:10:03;;;;;;;34.10;15.93;;;;;;;;;;5022566;28;20109;-80
2020/12/26 11:12:30;;;;;;;18.77;11.37;;;;;;;;;;5028391;28;20026;-81
2020/12/26 11:14:56;;;;;;;20.83;10.60;;;;;;;;;;5015628;28;20025;-82
2020/12/26 11:17:22;;;;;;;23.53;11.67;;;;;;;;;;5011059;28;20053;-82
2020/12/26 11:19:48;;;;;;;23.50;11.90;;;;;;;;;;5005427;28;20037;-81
2020/12/26 11:22:14;;;;;;;24.93;11.87;;;;;;;;;;5018111;28;20280;-82
2020/12/26 11:24:40;;;;;;;21.07;12.13;;;;;;;;;;5039619;28;20267;-80
2020/12/26 11:27:07;;;;;;;20.17;10.80;;;;;;;;;;5033029;28;20026;-80
2020/12/26 11:29:34;;;;;;;26.73;12.37;;;;;;;;;;5023575;28;20307;-81
2020/12/26 11:32:00;;;;;;;22.37;13.00;;;;;;;;;;5024562;28;20368;-81
2020/12/26 11:34:26;;;;;;;22.53;12.37;;;;;;;;;;5039293;28;20260;-81
2020/12/26 11:36:52;;;;;;;20.53;12.40;;;;;;;;;;5033598;28;20276;-80
2020/12/26 11:39:18;;;;;;;20.07;11.17;;;;;;;;;;5028377;28;20269;-80
2020/12/26 11:41:44;;;;;;;20.27;10.57;;;;;;;;;;5019862;28;20022;-79
2020/12/26 11:44:10;;;;;;;19.87;11.60;;;;;;;;;;5036187;28;20002;-80
2020/12/26 11:46:37;;;;;;;17.60;10.90;;;;;;;;;;5027341;28;20006;-81
2020/12/26 11:49:03;;;;;;;18.80;10.57;;;;;;;;;;5031209;28;20022;-82
2020/12/26 11:51:33;;;;;;;18.17;10.10;;;;;;;;;;5029517;28;20014;-82
2020/12/26 11:54:04;;;;;;;31.47;17.57;;;;;;;;;;5026008;28;20036;-82
2020/12/26 11:56:30;;;;;;;39.77;21.33;;;;;;;;;;5033064;28;20037;-82
2020/12/26 11:58:57;;;;;;;22.87;13.07;;;;;;;;;;5034165;28;20021;-81
2020/12/26 12:01:29;;;;;;;23.23;12.70;;;;;;;;;;5041326;28;20023;-81
2020/12/26 12:03:58;;;;;;;22.30;9.73;;;;;;;;;;5030979;28;20010;-82
2020/12/26 12:06:24;;;;;;;19.90;10.13;;;;;;;;;;5036007;28;20030;-82
2020/12/26 12:08:50;;;;;;;17.90;10.93;;;;;;;;;;5031159;28;20048;-82
2020/12/26 12:11:19;;;;;;;22.67;11.87;;;;;;;;;;5032721;28;20028;-81
2020/12/26 12:13:49;;;;;;;21.20;9.63;;;;;;;;;;5032874;28;20050;-79
2020/12/26 12:16:22;;;;;;;27.63;16.50;;;;;;;;;;5030214;28;20057;-81
2020/12/26 12:18:48;;;;;;;111.40;67.07;;;;;;;;;;5033039;28;20024;-80
2020/12/26 12:21:14;;;;;;;18.43;12.27;;;;;;;;;;5031036;28;20010;-77
2020/12/26 12:23:40;;;;;;;18.00;11.20;;;;;;;;;;5033415;28;20026;-81
2020/12/26 12:26:06;;;;;;;22.70;10.60;;;;;;;;;;5016853;28;20034;-77
2020/12/26 12:28:32;;;;;;;19.53;11.33;;;;;;;;;;5013705;28;20030;-79
2020/12/26 12:30:58;;;;;;;47.87;25.47;;;;;;;;;;5015448;28;20030;-79
2020/12/26 12:33:25;;;;;;;21.00;11.20;;;;;;;;;;5028203;28;20041;-79
2020/12/26 12:35:51;;;;;;;19.37;10.90;;;;;;;;;;5035219;28;20036;-79
2020/12/26 12:38:17;;;;;;;18.50;10.90;;;;;;;;;;5033931;28;20053;-79
2020/12/26 12:40:43;;;;;;;17.23;10.90;;;;;;;;;;5030081;28;20029;-79
2020/12/26 12:43:09;;;;;;;19.87;11.50;;;;;;;;;;5015334;28;20632;-80
2020/12/26 12:45:37;;;;;;;21.30;11.67;;;;;;;;;;5013638;28;20053;-79
2020/12/26 12:48:06;;;;;;;19.43;11.60;;;;;;;;;;5012354;28;20125;-79
2020/12/26 12:50:32;;;;;;;22.43;11.70;;;;;;;;;;5015238;28;20125;-80
2020/12/26 12:53:05;;;;;;;19.57;11.47;;;;;;;;;;5017487;28;20030;-78
2020/12/26 12:55:34;;;;;;;20.57;12.50;;;;;;;;;;5014868;28;20018;-80
2020/12/26 12:58:00;;;;;;;26.03;12.80;;;;;;;;;;5013987;28;20404;-79
2020/12/26 13:00:26;;;;;;;19.47;11.83;;;;;;;;;;5014490;28;20036;-79
2020/12/26 13:02:52;;;;;;;21.27;13.93;;;;;;;;;;4999302;28;20035;-82
2020/12/26 13:05:18;;;;;;;37.60;21.00;;;;;;;;;;4995630;28;20022;-80
2020/12/26 13:07:44;;;;;;;24.33;15.87;;;;;;;;;;4995112;28;20030;-80
2020/12/26 13:10:10;;;;;;;20.10;11.80;;;;;;;;;;5002067;28;20177;-81
2020/12/26 13:12:36;;;;;;;16.97;10.73;;;;;;;;;;5014520;28;20120;-80
2020/12/26 13:15:02;;;;;;;17.63;9.77;;;;;;;;;;5015918;28;20109;-80
2020/12/26 13:17:28;;;;;;;16.07;10.73;;;;;;;;;;5012786;28;20030;-80
2020/12/26 13:19:55;;;;;;;15.40;10.20;;;;;;;;;;5007917;28;20045;-79
2020/12/26 13:22:21;;;;;;;20.17;11.10;;;;;;;;;;5016776;28;20124;-79
2020/12/26 13:24:47;;;;;;;19.17;11.03;;;;;;;;;;5014597;28;20038;-81
2020/12/26 13:27:16;;;;;;;16.80;10.30;;;;;;;;;;5013329;28;20277;-80
2020/12/26 13:29:42;;;;;;;19.60;10.90;;;;;;;;;;5022097;28;20539;-80
2020/12/26 13:32:12;;;;;;;21.43;10.77;;;;;;;;;;5013627;28;20036;-81
2020/12/26 13:34:38;;;;;;;16.93;9.90;;;;;;;;;;5012235;28;20057;-80
2020/12/26 13:37:04;;;;;;;18.33;10.87;;;;;;;;;;5007896;28;20300;-81
2020/12/26 13:39:33;;;;;;;17.67;10.07;;;;;;;;;;4994098;28;20261;-80
2020/12/26 13:41:59;;;;;;;16.73;10.03;;;;;;;;;;5004093;28;20335;-82
2020/12/26 13:44:25;;;;;;;18.40;10.90;;;;;;;;;;5011713;28;20265;-80
2020/12/26 13:46:51;;;;;;;264.93;102.50;;;;;;;;;;5006447;28;20320;-80
2020/12/26 13:49:17;;;;;;;27.20;14.97;;;;;;;;;;4992472;28;20274;-81
2020/12/26 13:51:46;;;;;;;22.77;12.00;;;;;;;;;;5010680;28;20343;-81
2020/12/26 13:54:13;;;;;;;21.97;11.40;;;;;;;;;;5016813;28;21306;-80
2020/12/26 13:56:39;;;;;;;20.80;10.87;;;;;;;;;;5013304;28;20277;-81
2020/12/26 13:59:05;;;;;;;16.03;10.07;;;;;;;;;;5011287;28;20277;-81
2020/12/26 14:01:31;;;;;;;20.13;10.67;;;;;;;;;;5007842;28;20712;-80
2020/12/26 14:03:57;;;;;;;19.87;10.33;;;;;;;;;;4992769;28;20285;-79
2020/12/26 14:06:27;;;;;;;20.40;10.30;;;;;;;;;;4998561;28;20265;-80
2020/12/26 14:08:53;;;;;;;16.27;9.13;;;;;;;;;;5010402;28;20269;-85
2020/12/26 14:11:19;;;;;;;16.27;9.77;;;;;;;;;;5011561;28;20279;-81
2020/12/26 14:13:45;;;;;;;17.63;10.83;;;;;;;;;;5010660;28;20296;-80
2020/12/26 14:16:19;;;;;;;28.60;13.73;;;;;;;;;;5009659;28;20291;-83
2020/12/26 14:18:45;;;;;;;86.65;38.58;;;;;;;;;;5011017;28;20273;-80